Time;durP1;ratioP1;P1;durP2;ratioP2;P2;SDS_P1;SDS_P2;PMS_P1;PMS_P2;Temp;Humidity;BMP_temperature;BMP_pressure;BME280_temperature;BME280_humidity;BME280_pressure;Samples;Min_cycle;Max_cycle;Signal;HPM_P1;HPM_P2
2022/06/04 00:00:39;;;;;;;21.53;14.90;;;15.90;99.90;;;;;;4956339;28;20533;-57
2022/06/04 00:03:05;;;;;;;27.70;16.50;;;15.90;99.90;;;;;;4969701;28;20445;-56
2022/06/04 00:05:35;;;;;;;33.07;17.93;;;15.90;99.90;;;;;;4967119;28;21053;-57
2022/06/04 00:08:03;;;;;;;35.60;16.57;;;15.80;99.90;;;;;;4974994;28;20436;-56
2022/06/04 00:16:06;;;;;;;45.70;20.03;;;15.80;99.90;;;;;;4966320;28;20646;-56
2022/06/04 00:18:32;;;;;;;60.60;25.50;;;15.80;99.90;;;;;;4952743;28;20445;-56
2022/06/04 00:20:58;;;;;;;49.57;20.83;;;15.80;99.90;;;;;;4977695;28;20832;-57
2022/06/04 00:23:26;;;;;;;46.47;20.90;;;15.80;99.90;;;;;;4989169;28;20427;-57
2022/06/04 00:25:54;;;;;;;56.10;19.10;;;15.80;99.90;;;;;;4970344;28;20443;-57
2022/06/04 00:28:21;;;;;;;40.90;17.20;;;15.80;99.90;;;;;;4980610;28;20427;-57
2022/06/04 00:30:47;;;;;;;38.73;17.20;;;15.70;99.90;;;;;;4976800;28;20544;-57
2022/06/04 00:33:13;;;;;;;32.60;17.63;;;15.70;99.90;;;;;;4966951;28;20524;-56
2022/06/04 00:35:40;;;;;;;38.93;17.60;;;15.70;99.90;;;;;;4963729;28;20466;-57
2022/06/04 00:38:07;;;;;;;34.30;18.53;;;15.70;99.90;;;;;;4974904;28;20926;-56
2022/06/04 00:40:45;;;;;;;52.97;18.83;;;15.70;99.90;;;;;;4968697;28;20439;-56
2022/06/04 00:43:11;;;;;;;82.43;20.90;;;15.70;99.90;;;;;;4966634;28;20433;-56
2022/06/04 00:45:36;;;;;;;40.00;18.37;;;15.60;99.90;;;;;;4972127;28;20437;-56
2022/06/04 00:48:08;;;;;;;89.07;21.27;;;15.60;99.90;;;;;;4967249;28;20479;-56
2022/06/04 00:50:38;;;;;;;36.20;17.47;;;15.60;99.90;;;;;;4968071;28;20202;-57
2022/06/04 00:53:07;;;;;;;33.07;16.80;;;15.60;99.90;;;;;;4971793;28;20424;-57
2022/06/04 00:55:55;;;;;;;28.07;16.33;;;15.50;99.90;;;;;;4972726;28;20556;-56
2022/06/04 00:58:27;;;;;;;31.07;17.10;;;15.50;99.90;;;;;;4968519;28;20402;-56
2022/06/04 01:01:09;;;;;;;39.73;19.43;;;15.50;99.90;;;;;;4966466;28;21104;-56
2022/06/04 01:03:50;;;;;;;50.80;20.23;;;15.50;99.90;;;;;;4975772;28;20863;-56
2022/06/04 01:06:42;;;;;;;45.40;18.33;;;15.50;99.90;;;;;;4972079;28;20503;-56
2022/06/04 01:09:37;;;;;;;51.07;16.00;;;15.50;99.90;;;;;;4964866;28;20447;-56
2022/06/04 01:12:18;;;;;;;25.63;14.20;;;15.50;99.90;;;;;;4981376;28;20759;-56
2022/06/04 01:15:06;;;;;;;18.23;13.33;;;15.50;99.90;;;;;;4976983;28;20862;-56
2022/06/04 01:18:04;;;;;;;17.37;12.60;;;15.50;99.90;;;;;;4964613;28;20428;-56
2022/06/04 01:21:06;;;;;;;30.07;12.97;;;15.50;99.90;;;;;;4977317;28;20760;-57
2022/06/04 01:24:09;;;;;;;17.80;12.33;;;15.40;99.90;;;;;;4987517;28;20418;-56
2022/06/04 01:26:43;;;;;;;19.63;13.87;;;15.40;99.90;;;;;;4972580;28;20441;-57
2022/06/04 01:29:20;;;;;;;24.97;11.77;;;15.40;99.90;;;;;;4979880;28;20434;-56
2022/06/04 01:32:16;;;;;;;15.27;11.83;;;15.40;99.90;;;;;;4971640;28;20448;-56
2022/06/04 01:35:04;;;;;;;16.87;11.20;;;15.40;99.90;;;;;;4962299;28;20578;-57
2022/06/04 01:38:14;;;;;;;16.20;11.77;;;15.30;99.90;;;;;;4975185;28;20440;-57
2022/06/04 01:41:03;;;;;;;16.07;11.23;;;15.30;99.90;;;;;;4959834;28;20449;-56
2022/06/04 01:43:32;;;;;;;17.37;11.20;;;15.30;99.90;;;;;;4943122;29;20430;-56
2022/06/04 01:46:02;;;;;;;21.70;11.23;;;15.30;99.90;;;;;;4955784;28;20443;-57
2022/06/04 01:48:31;;;;;;;18.03;10.73;;;15.30;99.90;;;;;;4983949;28;20423;-56
2022/06/04 01:50:59;;;;;;;13.37;10.23;;;15.30;99.90;;;;;;4979809;28;20964;-57
2022/06/04 01:53:32;;;;;;;16.80;9.67;;;15.20;99.90;;;;;;4972615;28;20452;-56
2022/06/04 01:56:05;;;;;;;15.30;10.30;;;15.20;99.90;;;;;;4965338;28;20869;-57
2022/06/04 01:58:41;;;;;;;14.83;9.77;;;15.20;99.90;;;;;;4978880;28;20452;-57
2022/06/04 02:01:14;;;;;;;16.17;9.67;;;15.20;99.90;;;;;;4958671;28;20499;-55
2022/06/04 02:03:40;;;;;;;12.07;10.17;;;15.20;99.90;;;;;;4965505;28;20448;-56
2022/06/04 02:06:11;;;;;;;12.63;9.70;;;15.20;99.90;;;;;;4969402;28;20525;-56
2022/06/04 02:08:44;;;;;;;18.73;10.63;;;15.10;99.90;;;;;;4982886;28;20262;-57
2022/06/04 02:11:12;;;;;;;21.10;10.43;;;15.10;99.90;;;;;;4982066;28;20500;-59
2022/06/04 02:13:39;;;;;;;23.93;12.70;;;15.10;99.90;;;;;;4963850;28;20488;-57
2022/06/04 02:16:13;;;;;;;43.93;14.00;;;15.10;99.90;;;;;;4965825;28;20811;-57
2022/06/04 02:18:39;;;;;;;40.37;13.40;;;15.10;99.90;;;;;;4978859;28;20416;-56
2022/06/04 02:21:05;;;;;;;22.20;11.97;;;15.10;99.90;;;;;;4985069;28;20465;-56
2022/06/04 02:23:33;;;;;;;18.10;11.00;;;15.00;99.90;;;;;;4976973;28;20788;-57
2022/06/04 02:26:00;;;;;;;16.10;11.27;;;15.00;99.90;;;;;;4987507;28;20447;-56
2022/06/04 02:28:26;;;;;;;24.33;10.13;;;15.00;99.90;;;;;;4988226;28;20456;-55
2022/06/04 02:30:57;;;;;;;67.23;13.30;;;15.00;99.90;;;;;;4985678;28;20440;-55
2022/06/04 02:33:52;;;;;;;24.63;11.10;;;15.00;99.90;;;;;;4961867;28;20462;-58
2022/06/04 02:36:46;;;;;;;18.83;10.90;;;14.90;99.90;;;;;;4976960;28;20472;-56
2022/06/04 02:39:25;;;;;;;30.37;12.30;;;14.90;99.90;;;;;;4985294;28;20400;-57
2022/06/04 02:42:11;;;;;;;32.20;14.90;;;14.90;99.90;;;;;;4971745;28;20500;-55
2022/06/04 02:45:04;;;;;;;32.70;16.27;;;14.90;99.90;;;;;;4987455;28;20428;-55
2022/06/04 02:47:37;;;;;;;22.07;12.20;;;14.90;99.90;;;;;;4969532;28;20425;-57
2022/06/04 02:50:11;;;;;;;31.33;14.47;;;14.90;99.90;;;;;;4964681;28;20456;-57
2022/06/04 02:52:38;;;;;;;19.57;12.73;;;14.90;99.90;;;;;;4970585;28;21195;-57
2022/06/04 02:55:16;;;;;;;20.67;12.00;;;14.90;99.90;;;;;;4983924;28;20789;-56
2022/06/04 02:57:46;;;;;;;14.57;9.47;;;15.00;99.90;;;;;;4967587;28;20552;-56
2022/06/04 03:00:17;;;;;;;8.90;7.60;;;14.90;99.90;;;;;;4970472;28;20961;-56
2022/06/04 03:02:43;;;;;;;12.03;8.03;;;14.90;99.90;;;;;;4971143;28;20476;-56
2022/06/04 03:05:14;;;;;;;8.67;7.27;;;14.80;99.90;;;;;;4984503;28;20908;-56
2022/06/04 03:07:44;;;;;;;7.80;7.00;;;14.70;99.90;;;;;;4963780;28;20532;-57
2022/06/04 03:10:20;;;;;;;8.27;6.80;;;14.70;99.90;;;;;;4981401;28;20469;-56
2022/06/04 03:12:47;;;;;;;8.20;6.53;;;14.70;99.90;;;;;;4970478;28;20766;-56
2022/06/04 03:15:13;;;;;;;6.87;6.17;;;14.70;99.90;;;;;;5059932;22;21081;-60
2022/06/04 03:17:41;;;;;;;7.53;5.70;;;14.70;99.90;;;;;;5027344;28;20480;-59
2022/06/04 03:20:07;;;;;;;5.67;5.13;;;14.80;99.90;;;;;;5014467;28;21173;-61
2022/06/04 03:22:34;;;;;;;4.93;4.30;;;14.80;99.90;;;;;;5022399;28;20425;-60
2022/06/04 03:25:00;;;;;;;10.83;3.50;;;14.80;99.90;;;;;;5051186;28;20448;-60
2022/06/04 03:27:25;;;;;;;7.63;3.10;;;14.80;99.90;;;;;;5049184;28;20425;-60
2022/06/04 03:29:51;;;;;;;4.40;3.07;;;14.90;99.90;;;;;;5028105;28;20768;-60
2022/06/04 03:32:17;;;;;;;3.17;2.87;;;15.00;99.90;;;;;;5052879;28;20282;-60
2022/06/04 03:34:42;;;;;;;4.87;3.13;;;15.00;99.90;;;;;;5066934;28;20207;-59
2022/06/04 03:37:08;;;;;;;4.07;2.97;;;15.10;99.90;;;;;;5063729;28;20171;-60
2022/06/04 03:39:34;;;;;;;18.27;2.70;;;15.10;99.90;;;;;;5055894;28;20671;-60
2022/06/04 03:42:01;;;;;;;4.10;2.50;;;15.20;99.90;;;;;;5047797;28;20253;-60
2022/06/04 03:44:27;;;;;;;3.40;2.17;;;15.20;99.90;;;;;;5061539;28;20194;-60
2022/06/04 03:46:53;;;;;;;9.90;2.57;;;15.30;99.90;;;;;;5054617;28;20939;-59
2022/06/04 03:49:19;;;;;;;3.93;2.67;;;15.40;99.90;;;;;;5033336;28;20434;-60
2022/06/04 03:51:45;;;;;;;5.20;2.20;;;15.40;99.90;;;;;;5045982;28;20182;-59
2022/06/04 03:54:11;;;;;;;11.33;3.97;;;15.40;99.90;;;;;;5030987;28;20488;-60
2022/06/04 03:56:37;;;;;;;12.73;4.23;;;15.40;99.90;;;;;;5044611;28;20429;-58
2022/06/04 03:59:03;;;;;;;6.70;3.40;;;15.40;99.90;;;;;;5059963;28;20414;-59
2022/06/04 04:01:30;;;;;;;10.10;2.67;;;15.40;99.90;;;;;;5047146;28;20556;-60
2022/06/04 04:03:58;;;;;;;4.13;2.20;;;15.30;99.90;;;;;;5038155;28;20992;-59
2022/06/04 04:06:26;;;;;;;8.00;2.80;;;15.30;99.90;;;;;;5029681;28;20795;-60
2022/06/04 04:08:53;;;;;;;4.73;2.57;;;15.30;99.90;;;;;;5024200;28;20482;-60
2022/06/04 04:11:20;;;;;;;4.30;2.63;;;15.30;99.90;;;;;;5066182;28;20423;-60
2022/06/04 04:13:47;;;;;;;5.00;3.20;;;15.30;99.90;;;;;;5040781;28;20955;-60
2022/06/04 04:16:15;;;;;;;3.43;2.80;;;15.40;99.90;;;;;;5049393;28;20863;-59
2022/06/04 04:18:41;;;;;;;8.63;3.00;;;15.40;99.90;;;;;;5064382;28;21031;-60
2022/06/04 04:21:17;;;;;;;5.90;3.30;;;15.50;99.90;;;;;;5059631;28;20437;-60
2022/06/04 04:23:44;;;;;;;3.20;2.40;;;15.40;99.90;;;;;;5056796;28;20448;-60
2022/06/04 04:26:12;;;;;;;6.40;3.00;;;15.50;99.90;;;;;;5038956;28;20505;-60
2022/06/04 04:28:38;;;;;;;6.60;2.80;;;15.50;99.90;;;;;;5050444;28;20406;-59
2022/06/04 04:31:14;;;;;;;5.83;2.30;;;15.50;99.90;;;;;;5039412;28;20791;-60
2022/06/04 04:33:40;;;;;;;2.97;1.87;;;15.50;99.90;;;;;;5048435;28;20574;-59
2022/06/04 04:36:07;;;;;;;4.33;1.90;;;15.50;99.90;;;;;;5031944;28;20483;-59
2022/06/04 04:38:33;;;;;;;2.00;1.60;;;15.50;99.90;;;;;;5055643;28;20490;-59
2022/06/04 04:40:58;;;;;;;6.93;2.20;;;15.50;99.90;;;;;;5057801;28;20410;-59
2022/06/04 04:43:24;;;;;;;3.50;1.80;;;15.50;99.90;;;;;;5039283;28;20262;-60
2022/06/04 04:45:50;;;;;;;3.97;1.83;;;15.60;99.90;;;;;;5049637;28;20171;-60
2022/06/04 04:48:16;;;;;;;3.57;2.00;;;15.60;99.90;;;;;;5046415;28;20175;-60
2022/06/04 04:50:46;;;;;;;3.30;2.13;;;15.60;99.90;;;;;;5060371;28;20447;-60
2022/06/04 04:53:12;;;;;;;2.07;1.87;;;15.60;99.90;;;;;;5038633;28;20194;-60
2022/06/04 04:55:38;;;;;;;5.33;2.40;;;15.60;99.90;;;;;;5039927;28;20857;-60
2022/06/04 04:58:05;;;;;;;5.03;2.20;;;15.70;99.90;;;;;;5039062;28;20629;-60
2022/06/04 05:00:32;;;;;;;3.47;2.60;;;15.70;99.90;;;;;;5041925;28;20187;-59
2022/06/04 05:02:58;;;;;;;3.17;2.17;;;15.70;99.90;;;;;;5034068;28;20417;-61
2022/06/04 05:05:24;;;;;;;4.20;2.60;;;15.70;99.90;;;;;;5039699;28;20453;-60
2022/06/04 05:07:50;;;;;;;4.10;2.30;;;15.70;99.90;;;;;;5041563;28;20425;-60
2022/06/04 05:10:15;;;;;;;2.73;1.77;;;15.80;99.90;;;;;;5024710;28;20237;-61
2022/06/04 05:12:41;;;;;;;4.53;2.00;;;15.80;99.90;;;;;;5045749;28;20219;-61
2022/06/04 05:15:07;;;;;;;4.43;1.80;;;15.80;99.90;;;;;;5064170;28;20601;-62
2022/06/04 05:17:33;;;;;;;12.93;2.20;;;15.80;99.90;;;;;;5044942;28;20175;-61
2022/06/04 05:19:59;;;;;;;2.70;1.67;;;15.90;99.90;;;;;;5050247;28;20508;-62
2022/06/04 05:22:25;;;;;;;6.87;2.00;;;15.90;99.90;;;;;;5041372;28;20477;-61
2022/06/04 05:24:50;;;;;;;4.37;2.17;;;15.90;99.90;;;;;;5048830;28;20290;-61
2022/06/04 05:27:16;;;;;;;2.90;2.37;;;15.90;99.90;;;;;;5051666;28;20206;-61
2022/06/04 05:29:42;;;;;;;6.97;2.20;;;15.90;99.90;;;;;;5060648;28;20210;-61
2022/06/04 05:32:09;;;;;;;3.53;2.03;;;15.90;99.90;;;;;;5057776;28;20233;-61
2022/06/04 05:34:36;;;;;;;6.60;2.20;;;15.90;99.90;;;;;;5060490;28;20202;-61
2022/06/04 05:37:03;;;;;;;2.00;1.80;;;15.90;99.90;;;;;;5059368;28;20430;-65
2022/06/04 05:39:31;;;;;;;3.63;2.50;;;16.00;99.90;;;;;;5036865;28;20442;-62
2022/06/04 05:41:57;;;;;;;3.57;2.30;;;15.90;99.90;;;;;;5057486;28;20496;-61
2022/06/04 05:44:23;;;;;;;3.80;2.20;;;15.90;99.90;;;;;;5057570;28;20425;-61
2022/06/04 05:46:49;;;;;;;6.87;2.70;;;15.90;99.90;;;;;;5045655;28;20436;-61
2022/06/04 05:49:15;;;;;;;3.17;2.70;;;16.00;99.90;;;;;;5040162;28;20233;-61
2022/06/04 05:51:43;;;;;;;2.70;2.50;;;16.00;99.90;;;;;;5043206;28;20179;-62
2022/06/04 05:54:09;;;;;;;2.13;2.00;;;16.00;99.90;;;;;;5042184;28;20493;-61
2022/06/04 05:56:37;;;;;;;2.00;1.90;;;16.00;99.90;;;;;;5052610;28;20498;-61
2022/06/04 05:59:06;;;;;;;2.37;2.17;;;16.00;99.90;;;;;;5051714;28;20424;-62
2022/06/04 06:01:33;;;;;;;4.47;1.93;;;16.00;99.90;;;;;;5048839;28;20457;-63
2022/06/04 06:03:59;;;;;;;4.23;3.17;;;16.00;99.90;;;;;;5045942;28;20456;-61
2022/06/04 06:06:29;;;;;;;5.50;3.00;;;16.00;99.90;;;;;;5049616;28;21103;-62
2022/06/04 06:08:57;;;;;;;5.53;3.00;;;16.00;99.90;;;;;;5046391;28;20433;-61
2022/06/04 06:11:23;;;;;;;5.33;2.60;;;16.00;99.90;;;;;;5041326;28;20513;-61
2022/06/04 06:13:50;;;;;;;3.90;2.20;;;16.10;99.90;;;;;;5046879;28;21053;-61
2022/06/04 06:16:20;;;;;;;8.33;3.00;;;16.10;99.90;;;;;;5049515;28;20532;-61
2022/06/04 06:18:46;;;;;;;5.83;3.10;;;16.20;99.90;;;;;;5039469;28;20514;-62
2022/06/04 06:21:17;;;;;;;5.43;2.87;;;16.20;99.90;;;;;;5043211;28;20516;-61
2022/06/04 06:23:44;;;;;;;3.40;2.30;;;16.30;99.90;;;;;;5027279;28;20472;-62
2022/06/04 06:26:12;;;;;;;3.60;2.10;;;16.30;99.90;;;;;;5047482;28;20518;-61
2022/06/04 06:28:39;;;;;;;3.83;2.63;;;16.40;99.90;;;;;;5040802;28;20990;-60
2022/06/04 06:31:05;;;;;;;3.70;2.30;;;16.50;99.90;;;;;;5037882;28;20595;-60
2022/06/04 06:33:31;;;;;;;5.07;2.23;;;16.50;99.90;;;;;;5044714;28;20430;-62
2022/06/04 06:35:58;;;;;;;4.23;2.57;;;16.60;99.90;;;;;;5029064;28;20479;-63
2022/06/04 06:38:23;;;;;;;2.73;2.50;;;16.60;99.90;;;;;;5044139;28;20269;-61
2022/06/04 06:40:49;;;;;;;4.90;3.27;;;16.70;99.90;;;;;;5046867;28;20517;-60
2022/06/04 06:43:15;;;;;;;4.20;3.50;;;16.70;99.90;;;;;;5051147;28;20190;-60
2022/06/04 06:45:41;;;;;;;3.33;2.93;;;16.80;99.90;;;;;;5041992;28;20226;-59
2022/06/04 06:48:08;;;;;;;6.77;3.93;;;16.80;99.90;;;;;;5040794;28;20179;-61
2022/06/04 06:50:34;;;;;;;4.77;3.10;;;16.90;99.90;;;;;;5046001;28;20964;-60
2022/06/04 06:53:00;;;;;;;4.87;2.40;;;16.90;99.90;;;;;;5040947;28;20952;-60
2022/06/04 06:55:26;;;;;;;3.43;2.40;;;17.00;99.90;;;;;;5043004;28;20465;-60
2022/06/04 06:57:52;;;;;;;2.87;2.40;;;17.10;99.90;;;;;;5043011;28;20206;-60
2022/06/04 07:00:18;;;;;;;3.73;2.47;;;17.20;99.90;;;;;;5042839;28;20438;-60
2022/06/04 07:02:43;;;;;;;5.40;3.57;;;17.20;99.90;;;;;;5047083;28;20202;-59
2022/06/04 07:05:09;;;;;;;4.03;2.23;;;17.20;99.90;;;;;;5042364;28;20465;-61
2022/06/04 07:07:35;;;;;;;4.30;2.70;;;17.20;99.90;;;;;;5045055;28;20297;-60
2022/06/04 07:10:01;;;;;;;5.80;2.17;;;17.30;99.90;;;;;;5043636;28;23098;-61
2022/06/04 07:12:26;;;;;;;2.30;2.10;;;17.50;99.90;;;;;;5040651;28;20183;-60
2022/06/04 07:14:52;;;;;;;4.73;2.70;;;17.70;99.90;;;;;;5032269;28;20334;-64
2022/06/04 07:17:17;;;;;;;2.73;2.53;;;17.90;99.90;;;;;;5044722;28;20218;-59
2022/06/04 07:19:43;;;;;;;2.77;2.20;;;18.10;99.90;;;;;;5041422;28;20880;-59
2022/06/04 07:22:10;;;;;;;2.83;2.50;;;18.20;99.90;;;;;;5036211;28;20668;-59
2022/06/04 07:24:36;;;;;;;3.60;2.10;;;18.30;99.90;;;;;;5033453;28;20211;-59
2022/06/04 07:27:02;;;;;;;5.43;2.47;;;18.30;99.90;;;;;;5039794;28;20429;-59
2022/06/04 07:29:28;;;;;;;3.37;2.10;;;18.20;99.90;;;;;;5019411;28;20189;-59
2022/06/04 07:31:54;;;;;;;3.80;2.07;;;18.20;99.90;;;;;;5046078;28;20436;-59
2022/06/04 07:34:20;;;;;;;2.57;2.07;;;18.30;99.90;;;;;;5044638;28;20238;-59
2022/06/04 07:36:46;;;;;;;2.30;2.10;;;18.30;99.90;;;;;;5042428;28;20426;-60
2022/06/04 07:39:18;;;;;;;6.23;2.30;;;18.40;99.90;;;;;;5040748;28;20279;-59
2022/06/04 07:41:46;;;;;;;4.43;2.17;;;18.50;99.90;;;;;;5027903;28;20569;-58
2022/06/04 07:44:14;;;;;;;4.13;1.97;;;18.60;99.90;;;;;;5022478;28;20468;-59
2022/06/04 07:46:41;;;;;;;3.03;2.17;;;18.60;99.90;;;;;;5029502;28;20737;-60
2022/06/04 07:49:09;;;;;;;2.80;1.60;;;18.70;99.90;;;;;;5028371;28;20524;-59
2022/06/04 07:51:36;;;;;;;1.60;1.50;;;18.80;99.90;;;;;;5040227;28;20438;-59
2022/06/04 07:54:04;;;;;;;2.10;1.80;;;18.90;99.90;;;;;;5038682;28;20457;-60
2022/06/04 07:56:30;;;;;;;1.50;1.40;;;19.00;99.90;;;;;;5035588;28;20534;-59
2022/06/04 07:58:55;;;;;;;5.53;1.90;;;19.10;99.90;;;;;;5037707;28;20528;-59
2022/06/04 08:01:23;;;;;;;4.10;2.17;;;19.20;99.90;;;;;;5034232;28;20183;-59
2022/06/04 08:03:50;;;;;;;3.00;2.40;;;19.20;99.90;;;;;;5042323;28;20202;-58
2022/06/04 08:06:17;;;;;;;2.33;1.70;;;19.20;99.90;;;;;;5038600;28;20441;-59
2022/06/04 08:08:46;;;;;;;2.27;1.93;;;19.20;99.90;;;;;;5038829;28;20435;-60
2022/06/04 08:13:55;;;;;;;5.03;2.40;;;19.30;99.90;;;;;;5038410;28;20480;-61
2022/06/04 08:16:21;;;;;;;3.47;1.83;;;19.30;99.90;;;;;;5018585;28;20587;-60
2022/06/04 08:18:47;;;;;;;2.47;2.20;;;19.40;99.90;;;;;;5036917;28;20228;-58
2022/06/04 08:21:12;;;;;;;5.70;2.37;;;19.50;99.90;;;;;;5039939;28;20191;-60
2022/06/04 08:23:39;;;;;;;2.87;2.20;;;19.60;99.90;;;;;;5030815;28;22324;-60
2022/06/04 08:26:07;;;;;;;1.93;1.83;;;19.60;99.90;;;;;;5037355;28;20222;-59
2022/06/04 08:28:33;;;;;;;1.90;1.80;;;19.60;99.90;;;;;;5042955;28;20433;-59
2022/06/04 08:31:07;;;;;;;2.30;2.10;;;19.60;99.90;;;;;;5047474;28;21042;-59
2022/06/04 08:33:33;;;;;;;4.80;2.33;;;19.60;99.90;;;;;;5023562;28;20187;-60
2022/06/04 08:35:59;;;;;;;4.63;2.10;;;19.80;99.90;;;;;;5037046;28;20461;-59
2022/06/04 08:38:24;;;;;;;2.53;2.10;;;19.90;99.90;;;;;;5034138;28;20437;-60
2022/06/04 08:40:57;;;;;;;2.10;1.90;;;20.00;99.90;;;;;;5020237;28;20195;-62
2022/06/04 08:43:41;;;;;;;4.33;1.93;;;20.30;99.90;;;;;;5017557;28;20251;-61
2022/06/04 08:46:16;;;;;;;2.30;1.83;;;20.40;99.90;;;;;;5035314;28;20438;-61
2022/06/04 08:48:43;;;;;;;5.23;2.23;;;20.50;99.90;;;;;;5038543;28;20438;-61
2022/06/04 08:51:24;;;;;;;2.57;1.90;;;20.70;99.90;;;;;;5044301;28;20452;-61
2022/06/04 08:53:53;;;;;;;3.87;2.33;;;20.80;99.90;;;;;;5019128;28;20512;-61
2022/06/04 08:59:13;;;;;;;2.30;2.10;;;21.10;99.90;;;;;;5037488;28;21001;-60
2022/06/04 09:01:45;;;;;;;4.10;2.50;;;21.30;99.90;;;;;;5042564;28;20506;-60
2022/06/04 09:04:30;;;;;;;3.23;2.43;;;21.30;99.90;;;;;;5039103;28;20789;-60
2022/06/04 09:07:16;;;;;;;8.57;2.13;;;21.40;99.90;;;;;;5038998;28;20495;-60
2022/06/04 09:10:10;;;;;;;3.20;2.37;;;21.50;99.90;;;;;;5037115;28;20426;-60
2022/06/04 09:12:47;;;;;;;6.83;2.83;;;21.70;99.90;;;;;;5036037;28;20450;-60
2022/06/04 09:15:35;;;;;;;3.00;2.40;;;21.90;99.90;;;;;;5035500;28;20543;-59
2022/06/04 09:18:12;;;;;;;3.27;2.23;;;21.90;99.90;;;;;;5032238;28;20441;-61
2022/06/04 09:20:51;;;;;;;5.07;3.00;;;22.10;99.90;;;;;;5035367;28;20484;-59
2022/06/04 09:23:24;;;;;;;3.90;2.53;;;22.20;99.90;;;;;;5030425;28;20934;-61
2022/06/04 09:25:58;;;;;;;6.03;2.13;;;22.30;99.90;;;;;;5035753;28;20449;-58
2022/06/04 09:28:33;;;;;;;4.30;2.03;;;22.40;99.90;;;;;;5034333;28;20446;-59
2022/06/04 09:31:02;;;;;;;2.40;2.20;;;22.50;99.90;;;;;;5035917;28;20434;-60
2022/06/04 09:33:54;;;;;;;3.10;2.37;;;22.60;99.90;;;;;;5029962;28;20569;-58
2022/06/04 09:36:33;;;;;;;3.67;2.50;;;22.70;99.90;;;;;;5003788;28;20496;-59
2022/06/04 09:39:20;;;;;;;4.10;2.17;;;22.70;99.90;;;;;;5035887;28;20442;-59
2022/06/04 09:41:56;;;;;;;5.93;2.10;;;22.80;99.90;;;;;;5030727;28;20493;-59
2022/06/04 09:44:24;;;;;;;3.70;1.90;;;22.90;99.10;;;;;;5030726;28;21289;-59
2022/06/04 09:46:59;;;;;;;3.10;2.00;;;23.00;99.30;;;;;;5037341;28;20551;-60
2022/06/04 09:49:36;;;;;;;3.00;2.63;;;23.10;95.00;;;;;;5039601;28;20440;-61
2022/06/04 09:52:20;;;;;;;2.40;2.20;;;23.10;96.60;;;;;;5041392;28;20433;-59
2022/06/04 09:54:53;;;;;;;2.77;2.00;;;23.20;97.20;;;;;;5036183;28;20466;-60
2022/06/04 09:57:35;;;;;;;2.40;2.20;;;23.40;96.00;;;;;;5018008;28;20591;-59
2022/06/04 10:00:20;;;;;;;2.93;2.13;;;23.50;94.70;;;;;;5038982;28;20427;-59
2022/06/04 10:02:57;;;;;;;3.30;2.43;;;23.40;91.70;;;;;;5038159;28;20425;-60
2022/06/04 10:05:26;;;;;;;6.00;2.90;;;23.40;91.70;;;;;;5034339;28;20492;-60
2022/06/04 10:07:52;;;;;;;2.93;1.77;;;23.40;89.60;;;;;;5034673;28;20500;-60
2022/06/04 10:10:38;;;;;;;1.80;1.70;;;23.40;88.20;;;;;;5036175;28;20441;-60
2022/06/04 10:16:26;;;;;;;2.00;1.80;;;23.70;68.90;;;;;;5030027;28;20464;-60
2022/06/04 10:19:12;;;;;;;5.53;1.90;;;23.80;74.10;;;;;;5034383;28;20499;-60
2022/06/04 10:21:41;;;;;;;3.50;2.00;;;24.00;73.60;;;;;;5039315;28;20441;-60
2022/06/04 10:24:30;;;;;;;2.87;2.10;;;24.10;75.00;;;;;;5045079;28;20499;-55
2022/06/04 10:27:40;;;;;;;2.90;1.67;;;24.30;69.60;;;;;;5030475;28;20923;-58
2022/06/04 10:30:15;;;;;;;3.27;2.10;;;24.50;69.50;;;;;;5041831;28;20459;-58
2022/06/04 10:33:04;;;;;;;8.03;2.13;;;24.70;67.90;;;;;;5038495;28;20436;-58
2022/06/04 10:35:41;;;;;;;4.23;2.17;;;24.80;67.00;;;;;;5016012;28;20473;-60
2022/06/04 10:38:16;;;;;;;2.60;1.90;;;24.90;66.70;;;;;;5030436;28;20437;-58
2022/06/04 10:41:13;;;;;;;2.10;1.90;;;25.10;62.80;;;;;;5040839;28;20457;-58
2022/06/04 10:44:00;;;;;;;4.50;1.90;;;25.20;63.90;;;;;;5048833;28;20798;-59
2022/06/04 10:46:36;;;;;;;4.80;1.73;;;25.30;65.00;;;;;;5046627;28;20872;-58
2022/06/04 10:49:17;;;;;;;2.30;2.10;;;25.50;65.40;;;;;;5041843;28;20524;-60
2022/06/04 10:51:54;;;;;;;5.73;1.90;;;25.60;64.60;;;;;;5022625;28;20479;-60
2022/06/04 10:54:47;;;;;;;1.90;1.70;;;25.80;62.40;;;;;;5043127;28;20445;-59
2022/06/04 10:57:31;;;;;;;4.47;2.00;;;25.90;58.50;;;;;;5043466;28;20737;-59
2022/06/04 11:00:11;;;;;;;4.23;1.90;;;26.00;59.50;;;;;;5037797;28;20421;-58
2022/06/04 11:02:49;;;;;;;3.73;1.50;;;26.10;57.50;;;;;;5041378;28;20966;-59
2022/06/04 11:05:21;;;;;;;3.30;1.80;;;26.30;58.60;;;;;;5041730;28;20527;-59
2022/06/04 11:07:55;;;;;;;3.27;1.97;;;26.50;60.10;;;;;;5043704;28;20438;-59
2022/06/04 11:10:23;;;;;;;2.70;1.53;;;26.60;57.60;;;;;;5038100;28;20469;-59
2022/06/04 11:13:04;;;;;;;3.50;1.80;;;26.50;56.90;;;;;;5042395;28;20499;-59
2022/06/04 11:15:41;;;;;;;2.70;1.73;;;26.30;57.90;;;;;;5039109;28;20518;-59
2022/06/04 11:18:12;;;;;;;2.70;1.50;;;26.00;58.90;;;;;;5041963;28;20424;-57
2022/06/04 11:21:03;;;;;;;3.37;1.43;;;25.90;60.70;;;;;;5056291;28;20448;-57
2022/06/04 11:23:45;;;;;;;3.40;1.87;;;25.90;60.30;;;;;;5045068;28;20441;-60
2022/06/04 11:26:38;;;;;;;3.90;1.60;;;25.70;60.00;;;;;;5038177;28;20433;-59
2022/06/04 11:29:05;;;;;;;3.53;1.70;;;25.50;61.10;;;;;;5029854;28;20440;-59
2022/06/04 11:31:49;;;;;;;1.50;1.37;;;25.50;62.70;;;;;;5047493;28;20526;-58
2022/06/04 11:34:23;;;;;;;5.23;1.40;;;25.30;63.70;;;;;;5035876;28;20884;-59
2022/06/04 11:37:00;;;;;;;2.57;1.80;;;25.20;65.30;;;;;;5039691;28;20962;-60
2022/06/04 11:39:29;;;;;;;4.07;1.90;;;25.00;69.00;;;;;;5044823;28;20434;-59
2022/06/04 11:41:57;;;;;;;4.13;1.90;;;25.30;76.70;;;;;;5045215;28;20537;-59
2022/06/04 11:44:58;;;;;;;3.43;1.43;;;25.60;75.40;;;;;;5037334;28;20454;-56
2022/06/04 11:47:26;;;;;;;2.33;1.60;;;26.20;70.00;;;;;;5023715;28;20441;-54
2022/06/04 11:50:02;;;;;;;4.80;2.00;;;26.60;67.20;;;;;;5031984;28;20544;-54
2022/06/04 11:52:43;;;;;;;8.40;1.50;;;27.00;64.40;;;;;;5030147;28;20429;-59
2022/06/04 11:55:18;;;;;;;3.63;1.90;;;27.20;61.60;;;;;;5032578;28;20464;-58
2022/06/04 11:58:00;;;;;;;2.63;1.40;;;27.50;58.10;;;;;;5044235;28;20417;-55
2022/06/04 12:00:29;;;;;;;3.43;1.43;;;27.80;58.40;;;;;;5048171;28;20425;-54
2022/06/04 12:03:04;;;;;;;1.60;1.50;;;28.00;57.40;;;;;;5059772;28;20174;-56
2022/06/04 12:06:00;;;;;;;2.23;1.90;;;28.10;54.80;;;;;;5045424;28;20199;-56
2022/06/04 12:09:02;;;;;;;3.73;1.70;;;28.10;53.50;;;;;;5056899;28;20550;-55
2022/06/04 12:11:45;;;;;;;2.70;1.60;;;28.40;54.20;;;;;;5012405;28;20183;-54
2022/06/04 12:14:40;;;;;;;3.23;1.60;;;28.60;52.60;;;;;;5050745;28;20840;-57
2022/06/04 12:17:12;;;;;;;1.93;1.47;;;28.80;51.70;;;;;;5051811;28;20170;-56
2022/06/04 12:25:35;;;;;;;2.73;1.30;;;28.30;49.50;;;;;;5053487;28;20251;-51
2022/06/04 12:28:16;;;;;;;2.50;1.53;;;28.30;50.70;;;;;;5049082;28;20639;-55
2022/06/04 12:30:46;;;;;;;2.33;1.30;;;28.40;50.20;;;;;;5035679;28;20179;-53
2022/06/04 12:33:34;;;;;;;3.23;1.60;;;28.50;49.60;;;;;;5050712;28;20324;-56
2022/06/04 12:36:04;;;;;;;2.60;1.80;;;28.50;50.40;;;;;;5043018;28;20293;-57
2022/06/04 12:38:32;;;;;;;4.40;1.37;;;28.70;51.20;;;;;;5052622;28;20187;-55
2022/06/04 12:41:16;;;;;;;1.50;1.40;;;28.80;50.70;;;;;;5052962;28;20619;-56
2022/06/04 12:43:55;;;;;;;3.17;1.50;;;28.90;49.90;;;;;;5047716;28;20281;-55
2022/06/04 12:46:23;;;;;;;5.10;1.70;;;29.00;49.90;;;;;;5049320;28;20696;-55
2022/06/04 12:48:58;;;;;;;6.57;1.70;;;29.10;50.30;;;;;;5033473;28;20175;-61
2022/06/04 12:51:45;;;;;;;3.07;1.63;;;29.20;50.10;;;;;;5053281;28;20238;-56
2022/06/04 12:54:25;;;;;;;3.23;1.43;;;29.40;49.90;;;;;;5053397;28;20196;-54
2022/06/04 12:57:04;;;;;;;5.32;1.80;;;29.50;49.50;;;;;;5045947;28;20182;-58
2022/06/04 12:59:36;;;;;;;4.75;1.70;;;29.60;48.40;;;;;;5039966;28;20175;-57
2022/06/04 13:02:22;;;;;;;6.03;2.05;;;29.70;48.60;;;;;;5055560;28;20170;-56
2022/06/04 13:04:48;;;;;;;1.85;1.48;;;29.80;49.30;;;;;;5045808;28;20198;-57
2022/06/04 13:07:25;;;;;;;2.53;1.48;;;29.90;48.70;;;;;;5056521;28;20175;-56
2022/06/04 13:10:01;;;;;;;2.35;1.40;;;30.00;48.00;;;;;;5041232;28;20284;-54
2022/06/04 13:12:41;;;;;;;2.42;1.67;;;30.10;47.40;;;;;;5053860;28;20174;-56
2022/06/04 13:15:16;;;;;;;4.20;1.55;;;30.10;46.90;;;;;;5047280;28;20206;-54
2022/06/04 13:17:48;;;;;;;4.90;1.35;;;30.10;47.00;;;;;;5047983;28;20232;-53
2022/06/04 13:20:41;;;;;;;4.05;1.75;;;30.20;48.60;;;;;;5041120;28;20257;-53
2022/06/04 13:23:40;;;;;;;2.85;1.40;;;30.30;47.40;;;;;;5050995;28;20198;-58
2022/06/04 13:26:25;;;;;;;3.40;1.70;;;30.30;46.20;;;;;;5031501;28;20179;-57
2022/06/04 13:28:51;;;;;;;4.60;1.83;;;29.90;46.00;;;;;;5038903;28;20675;-58
2022/06/04 13:31:29;;;;;;;2.45;1.60;;;29.30;46.70;;;;;;5056219;28;20283;-56